sensor_id;sensor_type;location;lat;lon;timestamp;P1;durP1;ratioP1;P2;durP2;ratioP2
8247;SDS011;4164;49.844;8.830;2023-05-07T00:01:23;5.23;;;3.00;;
8247;SDS011;4164;49.844;8.830;2023-05-07T00:03:48;6.17;;;2.80;;
8247;SDS011;4164;49.844;8.830;2023-05-07T00:06:14;3.80;;;2.80;;
8247;SDS011;4164;49.844;8.830;2023-05-07T00:08:40;4.33;;;2.83;;
8247;SDS011;4164;49.844;8.830;2023-05-07T00:11:05;4.53;;;2.67;;
8247;SDS011;4164;49.844;8.830;2023-05-07T00:13:31;5.07;;;2.57;;
8247;SDS011;4164;49.844;8.830;2023-05-07T00:16:00;4.37;;;2.97;;
8247;SDS011;4164;49.844;8.830;2023-05-07T00:18:29;3.77;;;3.13;;
8247;SDS011;4164;49.844;8.830;2023-05-07T00:20:55;3.57;;;2.77;;
8247;SDS011;4164;49.844;8.830;2023-05-07T00:23:21;4.83;;;2.77;;
8247;SDS011;4164;49.844;8.830;2023-05-07T00:25:47;4.27;;;2.80;;
8247;SDS011;4164;49.844;8.830;2023-05-07T00:28:12;4.40;;;2.73;;
8247;SDS011;4164;49.844;8.830;2023-05-07T00:30:38;4.40;;;3.10;;
8247;SDS011;4164;49.844;8.830;2023-05-07T00:33:03;4.67;;;3.30;;
8247;SDS011;4164;49.844;8.830;2023-05-07T00:35:29;3.93;;;3.17;;
8247;SDS011;4164;49.844;8.830;2023-05-07T00:37:55;4.73;;;3.00;;
8247;SDS011;4164;49.844;8.830;2023-05-07T00:40:20;4.97;;;3.37;;
8247;SDS011;4164;49.844;8.830;2023-05-07T00:42:46;5.70;;;3.40;;
8247;SDS011;4164;49.844;8.830;2023-05-07T00:45:12;4.53;;;3.30;;
8247;SDS011;4164;49.844;8.830;2023-05-07T00:47:38;5.00;;;2.87;;
8247;SDS011;4164;49.844;8.830;2023-05-07T00:50:05;4.93;;;3.17;;
8247;SDS011;4164;49.844;8.830;2023-05-07T00:52:32;3.33;;;3.00;;
8247;SDS011;4164;49.844;8.830;2023-05-07T00:54:57;4.27;;;3.20;;
8247;SDS011;4164;49.844;8.830;2023-05-07T00:57:29;5.53;;;3.33;;
8247;SDS011;4164;49.844;8.830;2023-05-07T00:59:57;4.13;;;2.97;;
8247;SDS011;4164;49.844;8.830;2023-05-07T01:02:22;3.23;;;2.53;;
8247;SDS011;4164;49.844;8.830;2023-05-07T01:04:48;5.23;;;2.80;;
8247;SDS011;4164;49.844;8.830;2023-05-07T01:07:14;4.10;;;2.70;;
8247;SDS011;4164;49.844;8.830;2023-05-07T01:09:40;4.00;;;2.83;;
8247;SDS011;4164;49.844;8.830;2023-05-07T01:12:05;4.03;;;2.77;;
8247;SDS011;4164;49.844;8.830;2023-05-07T01:14:32;5.17;;;2.87;;
8247;SDS011;4164;49.844;8.830;2023-05-07T01:16:58;5.90;;;2.97;;
8247;SDS011;4164;49.844;8.830;2023-05-07T01:19:23;2.87;;;2.53;;
8247;SDS011;4164;49.844;8.830;2023-05-07T01:21:49;9.40;;;3.53;;
8247;SDS011;4164;49.844;8.830;2023-05-07T01:24:18;4.60;;;2.70;;
8247;SDS011;4164;49.844;8.830;2023-05-07T01:26:44;6.63;;;3.10;;
8247;SDS011;4164;49.844;8.830;2023-05-07T01:29:10;5.57;;;2.60;;
8247;SDS011;4164;49.844;8.830;2023-05-07T01:31:35;4.70;;;3.10;;
8247;SDS011;4164;49.844;8.830;2023-05-07T01:34:03;4.73;;;2.50;;
8247;SDS011;4164;49.844;8.830;2023-05-07T01:36:30;5.47;;;3.00;;
8247;SDS011;4164;49.844;8.830;2023-05-07T01:38:57;6.23;;;3.30;;
8247;SDS011;4164;49.844;8.830;2023-05-07T01:41:24;3.20;;;2.90;;
8247;SDS011;4164;49.844;8.830;2023-05-07T01:43:50;4.93;;;3.33;;
8247;SDS011;4164;49.844;8.830;2023-05-07T01:46:17;4.47;;;3.10;;
8247;SDS011;4164;49.844;8.830;2023-05-07T01:48:43;5.83;;;3.33;;
8247;SDS011;4164;49.844;8.830;2023-05-07T01:51:10;3.73;;;3.30;;
8247;SDS011;4164;49.844;8.830;2023-05-07T01:53:37;4.07;;;3.20;;
8247;SDS011;4164;49.844;8.830;2023-05-07T01:56:04;4.27;;;2.80;;
8247;SDS011;4164;49.844;8.830;2023-05-07T01:58:30;3.60;;;2.80;;
8247;SDS011;4164;49.844;8.830;2023-05-07T02:00:56;3.87;;;2.70;;
8247;SDS011;4164;49.844;8.830;2023-05-07T02:03:21;4.63;;;2.90;;
8247;SDS011;4164;49.844;8.830;2023-05-07T02:05:47;3.60;;;2.80;;
8247;SDS011;4164;49.844;8.830;2023-05-07T02:08:12;5.57;;;3.03;;
8247;SDS011;4164;49.844;8.830;2023-05-07T02:10:38;4.50;;;3.20;;
8247;SDS011;4164;49.844;8.830;2023-05-07T02:13:03;5.70;;;2.93;;
8247;SDS011;4164;49.844;8.830;2023-05-07T02:15:29;6.27;;;3.83;;
8247;SDS011;4164;49.844;8.830;2023-05-07T02:17:59;9.33;;;3.37;;
8247;SDS011;4164;49.844;8.830;2023-05-07T02:20:26;6.00;;;2.83;;
8247;SDS011;4164;49.844;8.830;2023-05-07T02:22:52;5.37;;;3.33;;
8247;SDS011;4164;49.844;8.830;2023-05-07T02:25:18;2.90;;;2.60;;
8247;SDS011;4164;49.844;8.830;2023-05-07T02:27:43;4.50;;;3.00;;
8247;SDS011;4164;49.844;8.830;2023-05-07T02:30:09;7.43;;;2.70;;
8247;SDS011;4164;49.844;8.830;2023-05-07T02:32:35;4.33;;;2.83;;
8247;SDS011;4164;49.844;8.830;2023-05-07T02:35:00;8.57;;;2.90;;
8247;SDS011;4164;49.844;8.830;2023-05-07T02:37:26;3.80;;;2.90;;
8247;SDS011;4164;49.844;8.830;2023-05-07T02:39:51;4.63;;;2.80;;
8247;SDS011;4164;49.844;8.830;2023-05-07T02:42:17;4.33;;;2.97;;
8247;SDS011;4164;49.844;8.830;2023-05-07T02:44:42;3.53;;;2.70;;
8247;SDS011;4164;49.844;8.830;2023-05-07T02:47:08;3.10;;;2.80;;
8247;SDS011;4164;49.844;8.830;2023-05-07T02:49:35;5.00;;;3.53;;
8247;SDS011;4164;49.844;8.830;2023-05-07T02:52:01;5.07;;;2.83;;
8247;SDS011;4164;49.844;8.830;2023-05-07T02:54:26;4.23;;;2.93;;
8247;SDS011;4164;49.844;8.830;2023-05-07T02:56:52;4.23;;;3.37;;
8247;SDS011;4164;49.844;8.830;2023-05-07T02:59:17;3.67;;;3.33;;
8247;SDS011;4164;49.844;8.830;2023-05-07T03:01:43;4.63;;;3.17;;
8247;SDS011;4164;49.844;8.830;2023-05-07T03:04:10;4.27;;;3.63;;
8247;SDS011;4164;49.844;8.830;2023-05-07T03:06:36;6.23;;;3.20;;
8247;SDS011;4164;49.844;8.830;2023-05-07T03:09:02;10.50;;;4.00;;
8247;SDS011;4164;49.844;8.830;2023-05-07T03:11:28;8.40;;;4.27;;
8247;SDS011;4164;49.844;8.830;2023-05-07T03:13:53;3.70;;;3.13;;
8247;SDS011;4164;49.844;8.830;2023-05-07T03:16:19;4.83;;;2.93;;
8247;SDS011;4164;49.844;8.830;2023-05-07T03:18:44;6.33;;;3.00;;
8247;SDS011;4164;49.844;8.830;2023-05-07T03:21:13;5.80;;;3.90;;
8247;SDS011;4164;49.844;8.830;2023-05-07T03:23:38;5.17;;;3.43;;
8247;SDS011;4164;49.844;8.830;2023-05-07T03:26:04;4.10;;;3.10;;
8247;SDS011;4164;49.844;8.830;2023-05-07T03:28:29;3.57;;;3.03;;
8247;SDS011;4164;49.844;8.830;2023-05-07T03:30:55;3.20;;;2.70;;
8247;SDS011;4164;49.844;8.830;2023-05-07T03:33:21;4.27;;;3.20;;
8247;SDS011;4164;49.844;8.830;2023-05-07T03:35:46;7.30;;;3.57;;
8247;SDS011;4164;49.844;8.830;2023-05-07T03:38:12;3.83;;;3.03;;
8247;SDS011;4164;49.844;8.830;2023-05-07T03:40:37;4.77;;;3.20;;
8247;SDS011;4164;49.844;8.830;2023-05-07T03:43:03;3.53;;;2.87;;
8247;SDS011;4164;49.844;8.830;2023-05-07T03:45:28;5.20;;;3.00;;
8247;SDS011;4164;49.844;8.830;2023-05-07T03:47:54;3.47;;;3.00;;
8247;SDS011;4164;49.844;8.830;2023-05-07T03:50:20;4.03;;;3.10;;
8247;SDS011;4164;49.844;8.830;2023-05-07T03:52:45;7.13;;;3.67;;
8247;SDS011;4164;49.844;8.830;2023-05-07T03:55:11;6.67;;;3.57;;
8247;SDS011;4164;49.844;8.830;2023-05-07T03:57:36;3.50;;;3.20;;
8247;SDS011;4164;49.844;8.830;2023-05-07T04:00:05;4.17;;;3.20;;
8247;SDS011;4164;49.844;8.830;2023-05-07T04:02:32;5.57;;;3.80;;
8247;SDS011;4164;49.844;8.830;2023-05-07T04:04:58;4.80;;;3.37;;
8247;SDS011;4164;49.844;8.830;2023-05-07T04:07:24;4.70;;;3.87;;
8247;SDS011;4164;49.844;8.830;2023-05-07T04:09:49;4.80;;;3.60;;
8247;SDS011;4164;49.844;8.830;2023-05-07T04:12:15;6.80;;;3.90;;
8247;SDS011;4164;49.844;8.830;2023-05-07T04:14:40;4.43;;;3.47;;
8247;SDS011;4164;49.844;8.830;2023-05-07T04:17:06;4.87;;;3.43;;
8247;SDS011;4164;49.844;8.830;2023-05-07T04:19:33;5.17;;;3.30;;
8247;SDS011;4164;49.844;8.830;2023-05-07T04:21:58;4.80;;;3.90;;
8247;SDS011;4164;49.844;8.830;2023-05-07T04:24:24;4.03;;;3.33;;
8247;SDS011;4164;49.844;8.830;2023-05-07T04:26:49;3.67;;;3.13;;
8247;SDS011;4164;49.844;8.830;2023-05-07T04:29:16;7.23;;;3.70;;
8247;SDS011;4164;49.844;8.830;2023-05-07T04:31:41;4.30;;;3.70;;
8247;SDS011;4164;49.844;8.830;2023-05-07T04:34:09;6.33;;;3.93;;
8247;SDS011;4164;49.844;8.830;2023-05-07T04:36:36;5.67;;;3.90;;
8247;SDS011;4164;49.844;8.830;2023-05-07T04:39:03;5.63;;;4.10;;
8247;SDS011;4164;49.844;8.830;2023-05-07T04:41:29;13.30;;;3.87;;
8247;SDS011;4164;49.844;8.830;2023-05-07T04:43:55;5.27;;;3.50;;
8247;SDS011;4164;49.844;8.830;2023-05-07T04:46:21;5.57;;;3.73;;
8247;SDS011;4164;49.844;8.830;2023-05-07T04:48:47;4.10;;;3.40;;
8247;SDS011;4164;49.844;8.830;2023-05-07T04:51:15;4.20;;;3.60;;
8247;SDS011;4164;49.844;8.830;2023-05-07T04:53:41;6.33;;;3.23;;
8247;SDS011;4164;49.844;8.830;2023-05-07T04:56:08;5.93;;;3.50;;
8247;SDS011;4164;49.844;8.830;2023-05-07T04:58:33;3.40;;;3.10;;
8247;SDS011;4164;49.844;8.830;2023-05-07T05:00:59;5.00;;;3.57;;
8247;SDS011;4164;49.844;8.830;2023-05-07T05:03:25;3.40;;;3.10;;
8247;SDS011;4164;49.844;8.830;2023-05-07T05:05:51;5.60;;;3.50;;
8247;SDS011;4164;49.844;8.830;2023-05-07T05:08:17;4.07;;;3.50;;
8247;SDS011;4164;49.844;8.830;2023-05-07T05:10:43;4.43;;;3.43;;
8247;SDS011;4164;49.844;8.830;2023-05-07T05:13:09;3.60;;;3.30;;
8247;SDS011;4164;49.844;8.830;2023-05-07T05:15:37;4.13;;;3.37;;
8247;SDS011;4164;49.844;8.830;2023-05-07T05:18:03;3.07;;;2.77;;
8247;SDS011;4164;49.844;8.830;2023-05-07T05:20:29;4.30;;;3.53;;
8247;SDS011;4164;49.844;8.830;2023-05-07T05:22:54;3.70;;;3.33;;
8247;SDS011;4164;49.844;8.830;2023-05-07T05:25:20;3.70;;;3.30;;
8247;SDS011;4164;49.844;8.830;2023-05-07T05:27:45;3.40;;;2.90;;
8247;SDS011;4164;49.844;8.830;2023-05-07T05:30:11;5.50;;;3.23;;
8247;SDS011;4164;49.844;8.830;2023-05-07T05:32:37;5.40;;;3.57;;
8247;SDS011;4164;49.844;8.830;2023-05-07T05:35:03;5.07;;;2.90;;
8247;SDS011;4164;49.844;8.830;2023-05-07T05:37:29;4.40;;;3.37;;
8247;SDS011;4164;49.844;8.830;2023-05-07T05:39:56;4.63;;;3.23;;
8247;SDS011;4164;49.844;8.830;2023-05-07T05:42:22;4.10;;;3.57;;
8247;SDS011;4164;49.844;8.830;2023-05-07T05:44:48;4.07;;;3.20;;
8247;SDS011;4164;49.844;8.830;2023-05-07T05:47:13;4.73;;;3.23;;
8247;SDS011;4164;49.844;8.830;2023-05-07T05:49:39;3.60;;;3.20;;
8247;SDS011;4164;49.844;8.830;2023-05-07T05:52:04;4.37;;;2.90;;
8247;SDS011;4164;49.844;8.830;2023-05-07T05:54:30;2.73;;;2.53;;
8247;SDS011;4164;49.844;8.830;2023-05-07T05:56:55;5.40;;;2.50;;
8247;SDS011;4164;49.844;8.830;2023-05-07T05:59:21;3.70;;;2.60;;
8247;SDS011;4164;49.844;8.830;2023-05-07T06:01:47;7.13;;;2.93;;
8247;SDS011;4164;49.844;8.830;2023-05-07T06:04:13;3.67;;;2.43;;
8247;SDS011;4164;49.844;8.830;2023-05-07T06:06:38;3.97;;;2.40;;
8247;SDS011;4164;49.844;8.830;2023-05-07T06:09:04;2.53;;;2.23;;
8247;SDS011;4164;49.844;8.830;2023-05-07T06:11:29;3.07;;;2.57;;
8247;SDS011;4164;49.844;8.830;2023-05-07T06:13:56;3.00;;;2.60;;
8247;SDS011;4164;49.844;8.830;2023-05-07T06:16:21;2.77;;;2.57;;
8247;SDS011;4164;49.844;8.830;2023-05-07T06:18:47;3.20;;;2.60;;
8247;SDS011;4164;49.844;8.830;2023-05-07T06:21:13;5.63;;;2.67;;
8247;SDS011;4164;49.844;8.830;2023-05-07T06:23:39;4.07;;;2.50;;
8247;SDS011;4164;49.844;8.830;2023-05-07T06:26:05;2.57;;;2.37;;
8247;SDS011;4164;49.844;8.830;2023-05-07T06:28:31;3.70;;;2.40;;
8247;SDS011;4164;49.844;8.830;2023-05-07T06:33:42;3.00;;;2.60;;
8247;SDS011;4164;49.844;8.830;2023-05-07T06:36:09;4.83;;;2.60;;
8247;SDS011;4164;49.844;8.830;2023-05-07T06:38:35;3.27;;;2.50;;
8247;SDS011;4164;49.844;8.830;2023-05-07T06:41:00;4.87;;;2.90;;
8247;SDS011;4164;49.844;8.830;2023-05-07T06:43:26;5.47;;;2.63;;
8247;SDS011;4164;49.844;8.830;2023-05-07T06:45:52;3.10;;;2.23;;
8247;SDS011;4164;49.844;8.830;2023-05-07T06:48:17;3.43;;;2.60;;
8247;SDS011;4164;49.844;8.830;2023-05-07T06:50:43;2.57;;;2.37;;
8247;SDS011;4164;49.844;8.830;2023-05-07T06:53:08;3.17;;;2.67;;
8247;SDS011;4164;49.844;8.830;2023-05-07T06:55:34;5.37;;;2.50;;
8247;SDS011;4164;49.844;8.830;2023-05-07T06:57:59;6.63;;;2.50;;
8247;SDS011;4164;49.844;8.830;2023-05-07T07:00:26;2.83;;;2.60;;
8247;SDS011;4164;49.844;8.830;2023-05-07T07:02:53;4.37;;;3.03;;
8247;SDS011;4164;49.844;8.830;2023-05-07T07:05:19;2.50;;;2.30;;
8247;SDS011;4164;49.844;8.830;2023-05-07T07:07:45;2.77;;;2.57;;
8247;SDS011;4164;49.844;8.830;2023-05-07T07:10:17;3.30;;;2.83;;
8247;SDS011;4164;49.844;8.830;2023-05-07T07:12:46;3.63;;;2.63;;
8247;SDS011;4164;49.844;8.830;2023-05-07T07:15:13;3.07;;;2.83;;
8247;SDS011;4164;49.844;8.830;2023-05-07T07:17:39;4.10;;;2.90;;
8247;SDS011;4164;49.844;8.830;2023-05-07T07:20:05;2.70;;;2.50;;
8247;SDS011;4164;49.844;8.830;2023-05-07T07:22:30;4.13;;;3.00;;
8247;SDS011;4164;49.844;8.830;2023-05-07T07:24:56;2.90;;;2.70;;
8247;SDS011;4164;49.844;8.830;2023-05-07T07:27:22;3.30;;;3.00;;
8247;SDS011;4164;49.844;8.830;2023-05-07T07:29:47;5.60;;;2.83;;
8247;SDS011;4164;49.844;8.830;2023-05-07T07:32:13;5.27;;;3.00;;
8247;SDS011;4164;49.844;8.830;2023-05-07T07:34:38;3.87;;;2.93;;
8247;SDS011;4164;49.844;8.830;2023-05-07T07:37:04;3.80;;;3.47;;
8247;SDS011;4164;49.844;8.830;2023-05-07T07:39:30;6.83;;;3.43;;
8247;SDS011;4164;49.844;8.830;2023-05-07T07:41:56;2.83;;;2.63;;
8247;SDS011;4164;49.844;8.830;2023-05-07T07:44:22;2.97;;;2.70;;
8247;SDS011;4164;49.844;8.830;2023-05-07T07:46:48;3.43;;;3.00;;
8247;SDS011;4164;49.844;8.830;2023-05-07T07:49:13;3.57;;;3.23;;
8247;SDS011;4164;49.844;8.830;2023-05-07T07:51:39;3.80;;;3.23;;
8247;SDS011;4164;49.844;8.830;2023-05-07T07:54:05;4.03;;;2.67;;
8247;SDS011;4164;49.844;8.830;2023-05-07T07:56:33;5.50;;;2.93;;
8247;SDS011;4164;49.844;8.830;2023-05-07T07:58:59;3.93;;;3.10;;
8247;SDS011;4164;49.844;8.830;2023-05-07T08:01:25;5.17;;;3.40;;
8247;SDS011;4164;49.844;8.830;2023-05-07T08:03:51;4.70;;;2.90;;
8247;SDS011;4164;49.844;8.830;2023-05-07T08:06:17;5.70;;;2.70;;
8247;SDS011;4164;49.844;8.830;2023-05-07T08:08:43;8.33;;;3.10;;
8247;SDS011;4164;49.844;8.830;2023-05-07T08:11:08;7.93;;;3.60;;
8247;SDS011;4164;49.844;8.830;2023-05-07T08:13:34;3.43;;;3.07;;
8247;SDS011;4164;49.844;8.830;2023-05-07T08:16:00;3.73;;;3.40;;
8247;SDS011;4164;49.844;8.830;2023-05-07T08:18:26;6.10;;;3.67;;
8247;SDS011;4164;49.844;8.830;2023-05-07T08:20:53;3.27;;;2.80;;
8247;SDS011;4164;49.844;8.830;2023-05-07T08:23:19;3.47;;;3.17;;
8247;SDS011;4164;49.844;8.830;2023-05-07T08:25:44;4.20;;;3.50;;
8247;SDS011;4164;49.844;8.830;2023-05-07T08:28:10;4.43;;;3.43;;
8247;SDS011;4164;49.844;8.830;2023-05-07T08:30:35;3.60;;;3.30;;
8247;SDS011;4164;49.844;8.830;2023-05-07T08:33:01;4.03;;;3.03;;
8247;SDS011;4164;49.844;8.830;2023-05-07T08:35:26;3.43;;;3.13;;
8247;SDS011;4164;49.844;8.830;2023-05-07T08:37:53;3.83;;;3.43;;
8247;SDS011;4164;49.844;8.830;2023-05-07T08:40:19;4.10;;;3.10;;
8247;SDS011;4164;49.844;8.830;2023-05-07T08:42:45;4.23;;;3.60;;
8247;SDS011;4164;49.844;8.830;2023-05-07T08:45:13;4.63;;;3.50;;
8247;SDS011;4164;49.844;8.830;2023-05-07T08:47:43;3.60;;;3.30;;
8247;SDS011;4164;49.844;8.830;2023-05-07T08:50:10;5.50;;;3.10;;
8247;SDS011;4164;49.844;8.830;2023-05-07T08:52:36;4.70;;;3.60;;
8247;SDS011;4164;49.844;8.830;2023-05-07T08:55:02;4.13;;;3.10;;
8247;SDS011;4164;49.844;8.830;2023-05-07T08:57:28;4.20;;;3.37;;
8247;SDS011;4164;49.844;8.830;2023-05-07T08:59:56;5.63;;;3.70;;
8247;SDS011;4164;49.844;8.830;2023-05-07T09:02:22;4.50;;;3.83;;
8247;SDS011;4164;49.844;8.830;2023-05-07T09:04:47;4.47;;;3.57;;
8247;SDS011;4164;49.844;8.830;2023-05-07T09:07:13;3.67;;;3.33;;
8247;SDS011;4164;49.844;8.830;2023-05-07T09:09:42;3.67;;;3.13;;
8247;SDS011;4164;49.844;8.830;2023-05-07T09:12:09;7.03;;;3.67;;
8247;SDS011;4164;49.844;8.830;2023-05-07T09:14:35;4.87;;;3.73;;
8247;SDS011;4164;49.844;8.830;2023-05-07T09:17:00;3.40;;;3.10;;
8247;SDS011;4164;49.844;8.830;2023-05-07T09:19:26;3.77;;;3.40;;
8247;SDS011;4164;49.844;8.830;2023-05-07T09:21:59;4.43;;;3.33;;
8247;SDS011;4164;49.844;8.830;2023-05-07T09:24:26;3.87;;;3.57;;
8247;SDS011;4164;49.844;8.830;2023-05-07T09:26:53;6.60;;;3.20;;
8247;SDS011;4164;49.844;8.830;2023-05-07T09:29:20;3.90;;;3.20;;
8247;SDS011;4164;49.844;8.830;2023-05-07T09:31:46;5.43;;;3.40;;
8247;SDS011;4164;49.844;8.830;2023-05-07T09:34:11;5.20;;;3.63;;
8247;SDS011;4164;49.844;8.830;2023-05-07T09:36:37;3.50;;;3.20;;
8247;SDS011;4164;49.844;8.830;2023-05-07T09:39:02;4.07;;;3.13;;
8247;SDS011;4164;49.844;8.830;2023-05-07T09:41:29;3.50;;;3.20;;
8247;SDS011;4164;49.844;8.830;2023-05-07T09:43:57;4.20;;;3.80;;
8247;SDS011;4164;49.844;8.830;2023-05-07T09:46:32;4.20;;;3.73;;
8247;SDS011;4164;49.844;8.830;2023-05-07T09:48:59;6.03;;;3.80;;
8247;SDS011;4164;49.844;8.830;2023-05-07T09:52:08;6.13;;;3.40;;
8247;SDS011;4164;49.844;8.830;2023-05-07T09:54:17;3.40;;;3.10;;
8247;SDS011;4164;49.844;8.830;2023-05-07T09:56:43;3.77;;;3.30;;
8247;SDS011;4164;49.844;8.830;2023-05-07T09:59:13;6.57;;;3.57;;
8247;SDS011;4164;49.844;8.830;2023-05-07T10:01:40;4.30;;;3.60;;
8247;SDS011;4164;49.844;8.830;2023-05-07T10:04:07;3.83;;;3.40;;
8247;SDS011;4164;49.844;8.830;2023-05-07T10:06:34;5.80;;;3.50;;
8247;SDS011;4164;49.844;8.830;2023-05-07T10:09:00;4.03;;;3.43;;
8247;SDS011;4164;49.844;8.830;2023-05-07T10:11:27;6.53;;;3.73;;
8247;SDS011;4164;49.844;8.830;2023-05-07T10:13:53;7.00;;;3.57;;
8247;SDS011;4164;49.844;8.830;2023-05-07T10:16:20;3.40;;;3.10;;
8247;SDS011;4164;49.844;8.830;2023-05-07T10:18:46;4.23;;;3.47;;
8247;SDS011;4164;49.844;8.830;2023-05-07T10:23:50;3.90;;;3.50;;
8247;SDS011;4164;49.844;8.830;2023-05-07T10:26:22;6.30;;;3.67;;
8247;SDS011;4164;49.844;8.830;2023-05-07T10:28:50;3.90;;;3.43;;
8247;SDS011;4164;49.844;8.830;2023-05-07T10:31:35;3.70;;;3.40;;
8247;SDS011;4164;49.844;8.830;2023-05-07T10:34:21;3.60;;;3.27;;
8247;SDS011;4164;49.844;8.830;2023-05-07T10:36:57;3.67;;;3.30;;
8247;SDS011;4164;49.844;8.830;2023-05-07T10:39:23;4.57;;;3.63;;
8247;SDS011;4164;49.844;8.830;2023-05-07T10:41:49;4.03;;;3.63;;
8247;SDS011;4164;49.844;8.830;2023-05-07T10:44:25;4.53;;;3.53;;
8247;SDS011;4164;49.844;8.830;2023-05-07T10:49:30;4.60;;;3.90;;
8247;SDS011;4164;49.844;8.830;2023-05-07T10:52:11;4.60;;;3.80;;
8247;SDS011;4164;49.844;8.830;2023-05-07T10:54:45;3.40;;;3.10;;
8247;SDS011;4164;49.844;8.830;2023-05-07T10:59:55;4.23;;;3.40;;
8247;SDS011;4164;49.844;8.830;2023-05-07T11:02:21;7.27;;;3.30;;
8247;SDS011;4164;49.844;8.830;2023-05-07T11:05:18;3.40;;;3.10;;
8247;SDS011;4164;49.844;8.830;2023-05-07T11:07:53;3.73;;;3.40;;
8247;SDS011;4164;49.844;8.830;2023-05-07T11:10:20;3.70;;;3.10;;
8247;SDS011;4164;49.844;8.830;2023-05-07T11:12:46;4.20;;;3.00;;
8247;SDS011;4164;49.844;8.830;2023-05-07T11:15:12;3.60;;;3.10;;
8247;SDS011;4164;49.844;8.830;2023-05-07T11:17:53;3.50;;;3.20;;
8247;SDS011;4164;49.844;8.830;2023-05-07T11:20:20;4.43;;;2.83;;
8247;SDS011;4164;49.844;8.830;2023-05-07T11:22:46;4.37;;;3.67;;
8247;SDS011;4164;49.844;8.830;2023-05-07T11:25:19;3.47;;;3.10;;
8247;SDS011;4164;49.844;8.830;2023-05-07T11:27:44;3.43;;;3.13;;
8247;SDS011;4164;49.844;8.830;2023-05-07T11:30:12;4.53;;;2.90;;
8247;SDS011;4164;49.844;8.830;2023-05-07T11:32:43;6.07;;;3.40;;
8247;SDS011;4164;49.844;8.830;2023-05-07T11:35:11;3.30;;;3.00;;
8247;SDS011;4164;49.844;8.830;2023-05-07T11:37:38;2.87;;;2.67;;
8247;SDS011;4164;49.844;8.830;2023-05-07T11:40:05;3.63;;;2.97;;
8247;SDS011;4164;49.844;8.830;2023-05-07T11:42:39;3.07;;;2.80;;
8247;SDS011;4164;49.844;8.830;2023-05-07T11:45:06;4.70;;;2.80;;
8247;SDS011;4164;49.844;8.830;2023-05-07T11:47:32;3.80;;;3.03;;
8247;SDS011;4164;49.844;8.830;2023-05-07T11:50:02;2.97;;;2.70;;
8247;SDS011;4164;49.844;8.830;2023-05-07T11:52:29;2.80;;;2.60;;
8247;SDS011;4164;49.844;8.830;2023-05-07T11:54:56;3.70;;;2.80;;
8247;SDS011;4164;49.844;8.830;2023-05-07T11:57:23;4.73;;;3.03;;
8247;SDS011;4164;49.844;8.830;2023-05-07T11:59:53;3.10;;;2.80;;
8247;SDS011;4164;49.844;8.830;2023-05-07T12:02:22;3.10;;;2.80;;
8247;SDS011;4164;49.844;8.830;2023-05-07T12:04:49;3.27;;;2.97;;
8247;SDS011;4164;49.844;8.830;2023-05-07T12:07:16;2.83;;;2.53;;
8247;SDS011;4164;49.844;8.830;2023-05-07T12:09:43;3.03;;;2.83;;
8247;SDS011;4164;49.844;8.830;2023-05-07T12:12:10;2.77;;;2.57;;
8247;SDS011;4164;49.844;8.830;2023-05-07T12:14:39;2.60;;;2.40;;
8247;SDS011;4164;49.844;8.830;2023-05-07T12:17:09;2.60;;;2.40;;
8247;SDS011;4164;49.844;8.830;2023-05-07T12:19:36;3.10;;;2.80;;
8247;SDS011;4164;49.844;8.830;2023-05-07T12:22:03;2.70;;;2.50;;
8247;SDS011;4164;49.844;8.830;2023-05-07T12:24:41;2.50;;;2.30;;
8247;SDS011;4164;49.844;8.830;2023-05-07T12:27:10;3.17;;;2.50;;
8247;SDS011;4164;49.844;8.830;2023-05-07T12:29:36;2.40;;;2.20;;
8247;SDS011;4164;49.844;8.830;2023-05-07T12:32:04;2.70;;;1.90;;
8247;SDS011;4164;49.844;8.830;2023-05-07T12:34:31;3.00;;;2.30;;
8247;SDS011;4164;49.844;8.830;2023-05-07T12:36:56;2.70;;;2.17;;
8247;SDS011;4164;49.844;8.830;2023-05-07T12:39:22;2.40;;;2.20;;
8247;SDS011;4164;49.844;8.830;2023-05-07T12:41:57;2.67;;;2.40;;
8247;SDS011;4164;49.844;8.830;2023-05-07T12:44:31;3.97;;;2.30;;
8247;SDS011;4164;49.844;8.830;2023-05-07T12:46:58;2.27;;;2.07;;
8247;SDS011;4164;49.844;8.830;2023-05-07T12:49:26;3.67;;;2.20;;
8247;SDS011;4164;49.844;8.830;2023-05-07T12:51:53;2.50;;;2.30;;
8247;SDS011;4164;49.844;8.830;2023-05-07T12:57:05;3.03;;;2.27;;
8247;SDS011;4164;49.844;8.830;2023-05-07T12:59:33;2.10;;;1.90;;
8247;SDS011;4164;49.844;8.830;2023-05-07T13:02:00;2.27;;;2.07;;
8247;SDS011;4164;49.844;8.830;2023-05-07T13:04:25;2.97;;;2.30;;
8247;SDS011;4164;49.844;8.830;2023-05-07T13:06:51;2.37;;;2.23;;
8247;SDS011;4164;49.844;8.830;2023-05-07T13:09:16;5.20;;;2.40;;
8247;SDS011;4164;49.844;8.830;2023-05-07T13:11:42;2.30;;;2.07;;
8247;SDS011;4164;49.844;8.830;2023-05-07T13:14:07;3.60;;;2.20;;
8247;SDS011;4164;49.844;8.830;2023-05-07T13:16:33;2.40;;;1.83;;
8247;SDS011;4164;49.844;8.830;2023-05-07T13:18:58;2.00;;;1.90;;
8247;SDS011;4164;49.844;8.830;2023-05-07T13:21:24;2.20;;;1.97;;
8247;SDS011;4164;49.844;8.830;2023-05-07T13:23:50;2.77;;;1.80;;
8247;SDS011;4164;49.844;8.830;2023-05-07T13:26:15;4.93;;;2.10;;
8247;SDS011;4164;49.844;8.830;2023-05-07T13:28:41;2.33;;;2.13;;
8247;SDS011;4164;49.844;8.830;2023-05-07T13:31:06;2.20;;;2.00;;
8247;SDS011;4164;49.844;8.830;2023-05-07T13:33:32;2.57;;;2.03;;
8247;SDS011;4164;49.844;8.830;2023-05-07T13:35:57;3.77;;;2.33;;
8247;SDS011;4164;49.844;8.830;2023-05-07T13:38:25;2.30;;;2.10;;
8247;SDS011;4164;49.844;8.830;2023-05-07T13:40:51;2.27;;;2.07;;
8247;SDS011;4164;49.844;8.830;2023-05-07T13:43:16;2.20;;;2.07;;
8247;SDS011;4164;49.844;8.830;2023-05-07T13:45:43;2.50;;;2.30;;
8247;SDS011;4164;49.844;8.830;2023-05-07T13:48:09;3.13;;;2.20;;
8247;SDS011;4164;49.844;8.830;2023-05-07T13:50:35;2.47;;;2.10;;
8247;SDS011;4164;49.844;8.830;2023-05-07T13:53:00;2.80;;;2.37;;
8247;SDS011;4164;49.844;8.830;2023-05-07T13:55:28;2.60;;;2.40;;
8247;SDS011;4164;49.844;8.830;2023-05-07T13:57:58;2.40;;;2.20;;
8247;SDS011;4164;49.844;8.830;2023-05-07T14:00:25;2.53;;;2.13;;
8247;SDS011;4164;49.844;8.830;2023-05-07T14:02:51;2.57;;;2.37;;
8247;SDS011;4164;49.844;8.830;2023-05-07T14:05:17;2.33;;;2.13;;
8247;SDS011;4164;49.844;8.830;2023-05-07T14:07:44;3.30;;;1.93;;
8247;SDS011;4164;49.844;8.830;2023-05-07T14:10:10;4.27;;;2.80;;
8247;SDS011;4164;49.844;8.830;2023-05-07T14:12:36;2.47;;;2.27;;
8247;SDS011;4164;49.844;8.830;2023-05-07T14:15:02;1.80;;;1.70;;
8247;SDS011;4164;49.844;8.830;2023-05-07T14:17:28;3.97;;;2.20;;
8247;SDS011;4164;49.844;8.830;2023-05-07T14:19:53;2.43;;;2.23;;
8247;SDS011;4164;49.844;8.830;2023-05-07T14:22:20;2.83;;;2.47;;
8247;SDS011;4164;49.844;8.830;2023-05-07T14:24:46;3.83;;;2.40;;
8247;SDS011;4164;49.844;8.830;2023-05-07T14:27:12;4.17;;;2.33;;
8247;SDS011;4164;49.844;8.830;2023-05-07T14:29:38;2.50;;;2.30;;
8247;SDS011;4164;49.844;8.830;2023-05-07T14:32:03;2.73;;;2.50;;
8247;SDS011;4164;49.844;8.830;2023-05-07T14:34:29;2.67;;;2.47;;
8247;SDS011;4164;49.844;8.830;2023-05-07T14:36:56;3.23;;;2.40;;
8247;SDS011;4164;49.844;8.830;2023-05-07T14:39:22;3.10;;;2.73;;
8247;SDS011;4164;49.844;8.830;2023-05-07T14:41:48;2.53;;;2.33;;
8247;SDS011;4164;49.844;8.830;2023-05-07T14:44:13;4.40;;;2.50;;
8247;SDS011;4164;49.844;8.830;2023-05-07T14:46:39;3.33;;;2.67;;
8247;SDS011;4164;49.844;8.830;2023-05-07T14:49:04;3.03;;;2.30;;
8247;SDS011;4164;49.844;8.830;2023-05-07T14:51:30;4.33;;;2.20;;
8247;SDS011;4164;49.844;8.830;2023-05-07T14:53:56;4.60;;;2.47;;
8247;SDS011;4164;49.844;8.830;2023-05-07T14:56:21;3.67;;;2.30;;
8247;SDS011;4164;49.844;8.830;2023-05-07T14:58:47;2.33;;;2.13;;
8247;SDS011;4164;49.844;8.830;2023-05-07T15:01:13;2.83;;;2.60;;
8247;SDS011;4164;49.844;8.830;2023-05-07T15:03:39;2.77;;;2.50;;
8247;SDS011;4164;49.844;8.830;2023-05-07T15:06:05;3.53;;;2.40;;
8247;SDS011;4164;49.844;8.830;2023-05-07T15:08:30;2.90;;;2.20;;
8247;SDS011;4164;49.844;8.830;2023-05-07T15:10:56;4.20;;;2.43;;
8247;SDS011;4164;49.844;8.830;2023-05-07T15:13:22;2.90;;;2.60;;
8247;SDS011;4164;49.844;8.830;2023-05-07T15:15:47;2.63;;;2.40;;
8247;SDS011;4164;49.844;8.830;2023-05-07T15:18:14;2.67;;;2.47;;
8247;SDS011;4164;49.844;8.830;2023-05-07T15:20:40;2.83;;;2.20;;
8247;SDS011;4164;49.844;8.830;2023-05-07T15:23:07;2.97;;;2.30;;
8247;SDS011;4164;49.844;8.830;2023-05-07T15:25:37;3.03;;;2.73;;